createdAt,value
2022-08-26T00:02:01.729Z,55.21
2022-08-26T00:04:29.189Z,56.39
2022-08-26T00:06:56.757Z,56.16
2022-08-26T00:09:25.801Z,55.48
2022-08-26T00:11:54.517Z,54.69
2022-08-26T00:14:27.054Z,55.69
2022-08-26T00:16:59.163Z,56.37
2022-08-26T00:19:27.610Z,53.90
2022-08-26T00:21:54.733Z,55.23
2022-08-26T00:24:23.526Z,54.68
2022-08-26T00:26:53.549Z,56.38
2022-08-26T00:29:21.217Z,54.19
2022-08-26T00:31:48.603Z,55.21
2022-08-26T00:34:19.308Z,53.88
2022-08-26T00:36:49.321Z,52.96
2022-08-26T00:39:20.617Z,57.17
2022-08-26T00:41:48.461Z,55.90
2022-08-26T00:44:16.190Z,56.23
2022-08-26T00:46:49.670Z,57.96
2022-08-26T00:49:31.150Z,58.42
2022-08-26T00:52:03.164Z,58.31
2022-08-26T00:54:35.278Z,58.97
2022-08-26T00:57:23.130Z,56.10
2022-08-26T00:59:57.623Z,54.37
2022-08-26T01:02:25.094Z,56.08
2022-08-26T01:05:00.639Z,56.00
2022-08-26T01:07:31.702Z,54.93
2022-08-26T01:10:03.256Z,55.21
2022-08-26T01:12:40.148Z,57.75
2022-08-26T01:15:13.730Z,56.82
2022-08-26T01:17:41.572Z,58.56
2022-08-26T01:20:46.453Z,57.67
2022-08-26T01:23:15.275Z,57.18
2022-08-26T01:25:48.969Z,58.52
2022-08-26T01:28:31.686Z,59.18
2022-08-26T01:31:01.604Z,57.63
2022-08-26T01:34:06.133Z,57.61
2022-08-26T01:36:33.658Z,56.38
2022-08-26T01:39:02.824Z,57.20
2022-08-26T01:41:39.017Z,57.04
2022-08-26T01:44:09.941Z,55.96
2022-08-26T01:46:37.429Z,55.51
2022-08-26T01:49:08.558Z,55.60
2022-08-26T01:51:38.711Z,58.02
2022-08-26T01:54:11.914Z,56.92
2022-08-26T01:56:39.564Z,56.69
2022-08-26T01:59:13.033Z,57.79
2022-08-26T02:01:41.171Z,57.54
2022-08-26T02:04:20.961Z,57.42
2022-08-26T02:06:49.820Z,58.02
2022-08-26T02:09:19.938Z,58.47
2022-08-26T02:11:47.996Z,60.06
2022-08-26T02:14:26.825Z,56.39
2022-08-26T02:16:56.076Z,55.75
2022-08-26T02:19:31.009Z,55.61
2022-08-26T02:22:03.499Z,58.10
2022-08-26T02:25:23.999Z,58.90
2022-08-26T02:27:52.017Z,58.52
2022-08-26T02:30:28.432Z,57.79
2022-08-26T02:32:58.348Z,57.24
2022-08-26T02:35:25.883Z,55.16
2022-08-26T02:37:53.580Z,54.72
2022-08-26T02:40:28.153Z,57.63
2022-08-26T02:42:56.100Z,58.30
2022-08-26T02:45:26.683Z,58.97
2022-08-26T02:47:54.282Z,58.04
2022-08-26T02:50:25.210Z,58.37
2022-08-26T02:52:52.866Z,59.05
2022-08-26T02:55:20.472Z,57.95
2022-08-26T02:57:50.609Z,56.77
2022-08-26T03:00:19.170Z,55.30
2022-08-26T03:02:46.435Z,55.59
2022-08-26T03:05:13.673Z,58.13
2022-08-26T03:07:43.519Z,58.19
2022-08-26T03:10:13.244Z,57.07
2022-08-26T03:12:43.020Z,56.50
2022-08-26T03:15:17.894Z,57.32
2022-08-26T03:17:47.720Z,57.42
2022-08-26T03:20:17.329Z,57.37
2022-08-26T03:22:45.481Z,57.66
2022-08-26T03:25:16.950Z,57.85
2022-08-26T03:27:44.493Z,56.89
2022-08-26T03:30:32.508Z,55.93
2022-08-26T03:33:01.170Z,57.23
2022-08-26T03:35:29.002Z,57.34
2022-08-26T03:37:56.348Z,58.05
2022-08-26T03:40:23.687Z,55.72
2022-08-26T03:42:56.339Z,55.10
2022-08-26T03:45:23.510Z,54.17
2022-08-26T03:47:51.956Z,55.52
2022-08-26T03:50:24.347Z,55.67
2022-08-26T03:52:55.058Z,55.42
2022-08-26T03:55:28.210Z,54.88
2022-08-26T03:57:56.475Z,56.43
2022-08-26T04:00:25.027Z,55.62
2022-08-26T04:02:53.455Z,55.66
2022-08-26T04:05:22.776Z,55.36
2022-08-26T04:07:50.533Z,56.10
2022-08-26T04:10:28.664Z,56.83
2022-08-26T04:12:58.953Z,54.50
2022-08-26T04:15:27.150Z,55.72
2022-08-26T04:17:55.906Z,55.50
2022-08-26T04:20:24.653Z,57.71
2022-08-26T04:22:54.032Z,56.43
2022-08-26T04:25:22.497Z,55.58
2022-08-26T04:27:51.264Z,56.32
2022-08-26T04:30:20.059Z,56.25
2022-08-26T04:32:49.015Z,57.20
2022-08-26T04:35:16.439Z,56.62
2022-08-26T04:37:44.113Z,57.02
2022-08-26T04:40:11.396Z,56.31
2022-08-26T04:42:41.320Z,58.30
2022-08-26T04:45:10.142Z,56.73
2022-08-26T04:47:38.658Z,56.95
2022-08-26T04:50:07.664Z,54.30
2022-08-26T04:52:36.312Z,54.44
2022-08-26T04:55:06.553Z,55.03
2022-08-26T04:57:35.762Z,53.65
2022-08-26T05:00:07.396Z,54.20
2022-08-26T05:02:34.592Z,54.28
2022-08-26T05:05:03.282Z,55.12
2022-08-26T05:07:31.339Z,55.85
2022-08-26T05:09:59.020Z,54.78
2022-08-26T05:12:26.687Z,54.94
2022-08-26T05:14:54.089Z,55.40
2022-08-26T05:17:22.012Z,56.42
2022-08-26T05:19:50.634Z,53.37
2022-08-26T05:22:18.329Z,54.06
2022-08-26T05:24:46.506Z,53.77
2022-08-26T05:27:14.404Z,53.25
2022-08-26T05:29:42.432Z,53.28
2022-08-26T05:32:11.371Z,52.56
2022-08-26T05:34:38.621Z,53.02
2022-08-26T05:37:07.018Z,52.48
2022-08-26T05:39:34.479Z,53.78
2022-08-26T05:42:01.620Z,51.02
2022-08-26T05:44:29.386Z,51.54
2022-08-26T05:47:17.216Z,50.51
2022-08-26T05:49:51.474Z,51.50
2022-08-26T05:52:19.601Z,49.92
2022-08-26T05:54:47.670Z,48.53
2022-08-26T05:57:15.167Z,49.72
2022-08-26T05:59:42.204Z,48.15
2022-08-26T06:02:10.007Z,47.75
2022-08-26T06:04:37.073Z,47.40
2022-08-26T06:07:04.123Z,49.15
2022-08-26T06:09:32.836Z,46.72
2022-08-26T06:12:01.798Z,45.62
2022-08-26T06:14:30.530Z,44.20
2022-08-26T06:16:58.043Z,41.45
2022-08-26T06:19:25.075Z,42.84
2022-08-26T06:22:22.441Z,42.49
2022-08-26T06:25:09.933Z,39.37
2022-08-26T06:27:37.118Z,39.16
2022-08-26T06:30:04.725Z,37.86
2022-08-26T06:32:31.933Z,36.88
2022-08-26T06:34:59.190Z,36.48
2022-08-26T06:37:26.171Z,35.38
2022-08-26T06:39:53.156Z,33.32
2022-08-26T06:42:20.477Z,33.61
2022-08-26T06:44:47.478Z,34.92
2022-08-26T06:47:15.156Z,33.23
2022-08-26T06:49:44.339Z,32.58
2022-08-26T06:52:11.404Z,33.20
2022-08-26T06:54:43.099Z,32.14
2022-08-26T06:57:12.651Z,31.48
2022-08-26T06:59:41.347Z,32.27
2022-08-26T07:02:08.630Z,30.31
2022-08-26T07:04:41.132Z,31.28
2022-08-26T07:07:09.643Z,29.87
2022-08-26T07:09:37.435Z,28.98
2022-08-26T07:12:06.855Z,30.15
2022-08-26T07:14:34.799Z,30.22
2022-08-26T07:17:02.616Z,28.68
2022-08-26T07:19:31.646Z,26.75
2022-08-26T07:22:05.234Z,26.18
2022-08-26T07:24:35.920Z,26.69
2022-08-26T07:27:09.096Z,24.77
2022-08-26T07:29:38.035Z,28.92
2022-08-26T07:32:05.645Z,27.08
2022-08-26T07:34:33.939Z,27.28
2022-08-26T07:37:03.752Z,26.82
2022-08-26T07:39:31.936Z,26.23
2022-08-26T07:42:07.417Z,24.95
2022-08-26T07:44:37.345Z,25.00
2022-08-26T07:47:19.366Z,24.72
2022-08-26T07:49:54.876Z,24.61
2022-08-26T07:52:26.179Z,23.87
2022-08-26T07:54:54.615Z,23.39
2022-08-26T07:57:21.674Z,22.77
2022-08-26T07:59:54.990Z,25.19
2022-08-26T08:02:24.264Z,24.79
2022-08-26T08:04:51.839Z,22.64
2022-08-26T08:07:19.087Z,22.48
2022-08-26T08:09:49.701Z,22.89
2022-08-26T08:12:19.117Z,22.07
2022-08-26T08:14:47.248Z,23.58
2022-08-26T08:17:16.380Z,24.35
2022-08-26T08:19:43.791Z,23.21
2022-08-26T08:22:17.075Z,22.25
2022-08-26T08:24:45.343Z,24.80
2022-08-26T08:27:18.159Z,22.92
2022-08-26T08:29:50.041Z,22.63
2022-08-26T08:32:17.995Z,22.89
2022-08-26T08:34:45.002Z,21.59
2022-08-26T08:37:12.112Z,21.26
2022-08-26T08:39:39.147Z,22.18
2022-08-26T08:42:46.970Z,21.88
2022-08-26T08:45:36.734Z,22.05
2022-08-26T08:48:13.012Z,21.64
2022-08-26T08:50:50.367Z,21.68
2022-08-26T08:53:38.207Z,21.51
2022-08-26T08:56:26.041Z,21.48
2022-08-26T08:59:24.261Z,23.18
2022-08-26T09:02:11.516Z,21.22
2022-08-26T09:05:15.396Z,20.11
2022-08-26T09:08:06.829Z,19.98
2022-08-26T09:10:49.734Z,20.35
2022-08-26T09:13:25.260Z,20.35
2022-08-26T09:16:46.656Z,20.61
2022-08-26T09:22:08.820Z,21.27
2022-08-26T09:24:41.799Z,19.56
2022-08-26T09:27:40.416Z,18.69
2022-08-26T09:30:11.533Z,19.24
2022-08-26T09:32:39.351Z,20.33
2022-08-26T09:35:30.904Z,19.93
2022-08-26T09:38:32.908Z,20.61
2022-08-26T09:41:18.989Z,18.75
2022-08-26T09:44:09.527Z,17.55
2022-08-26T09:47:04.997Z,19.58
2022-08-26T09:49:37.993Z,19.42
2022-08-26T09:52:17.547Z,17.57
2022-08-26T09:54:58.232Z,17.90
2022-08-26T09:57:30.551Z,17.69
2022-08-26T09:59:57.989Z,18.77
2022-08-26T10:02:39.335Z,19.85
2022-08-26T10:05:16.342Z,19.22
2022-08-26T10:07:51.289Z,17.83
2022-08-26T10:10:45.294Z,18.50
2022-08-26T10:13:23.977Z,18.17
2022-08-26T10:16:11.097Z,16.98
2022-08-26T10:19:08.253Z,18.65
2022-08-26T10:22:02.481Z,18.38
2022-08-26T10:24:41.154Z,18.50
2022-08-26T10:27:40.525Z,18.29
2022-08-26T10:30:21.690Z,18.33
2022-08-26T10:33:15.364Z,18.29
2022-08-26T10:35:59.095Z,17.83
2022-08-26T10:38:35.592Z,18.56
2022-08-26T10:41:22.885Z,18.14
2022-08-26T10:43:59.281Z,19.38
2022-08-26T10:46:40.987Z,18.84
2022-08-26T10:49:16.154Z,17.88
2022-08-26T10:52:12.066Z,18.61
2022-08-26T10:54:48.318Z,17.42
2022-08-26T10:57:46.540Z,17.10
2022-08-26T11:00:39.802Z,17.90
2022-08-26T11:03:35.120Z,17.54
2022-08-26T11:06:30.451Z,16.81
2022-08-26T11:09:07.577Z,17.04
2022-08-26T11:11:40.496Z,16.72
2022-08-26T11:14:29.096Z,17.79
2022-08-26T11:16:58.605Z,18.13
2022-08-26T11:19:59.535Z,18.14
2022-08-26T11:22:38.092Z,16.28
2022-08-26T11:25:19.759Z,16.82
2022-08-26T11:27:52.394Z,17.90
2022-08-26T11:30:20.376Z,17.10
2022-08-26T11:32:51.331Z,16.04
2022-08-26T11:35:18.584Z,16.87
2022-08-26T11:37:56.718Z,16.06
2022-08-26T11:40:38.438Z,16.86
2022-08-26T11:43:20.625Z,15.71
2022-08-26T11:46:10.731Z,16.50
2022-08-26T11:48:44.658Z,15.27
2022-08-26T11:51:35.890Z,16.25
2022-08-26T11:54:12.958Z,15.71
2022-08-26T11:56:42.808Z,15.92
2022-08-26T11:59:15.618Z,16.45
2022-08-26T12:01:49.096Z,16.95
2022-08-26T12:04:34.548Z,17.33
2022-08-26T12:07:02.691Z,17.20
2022-08-26T12:09:37.865Z,17.97
2022-08-26T12:12:38.677Z,17.29
2022-08-26T12:15:17.070Z,17.19
2022-08-26T12:17:48.584Z,17.70
2022-08-26T12:21:08.195Z,17.17
2022-08-26T12:23:36.516Z,18.19
2022-08-26T12:26:11.792Z,17.49
2022-08-26T12:29:20.243Z,17.91
2022-08-26T12:32:17.654Z,17.70
2022-08-26T12:34:49.066Z,18.16
2022-08-26T12:37:17.030Z,16.67
2022-08-26T12:39:46.307Z,17.02
2022-08-26T12:42:13.198Z,16.61
2022-08-26T12:45:06.487Z,15.72
2022-08-26T12:47:44.133Z,16.29
2022-08-26T12:50:20.486Z,17.07
2022-08-26T12:53:09.597Z,16.61
2022-08-26T12:55:59.089Z,17.75
2022-08-26T12:58:36.813Z,17.55
2022-08-26T13:01:07.194Z,16.88
2022-08-26T13:03:34.170Z,17.38
2022-08-26T13:06:15.950Z,17.13
2022-08-26T13:08:51.895Z,17.93
2022-08-26T13:11:34.261Z,17.93
2022-08-26T13:14:15.880Z,17.97
2022-08-26T13:16:52.879Z,18.50
2022-08-26T13:19:23.495Z,20.05
2022-08-26T13:21:57.579Z,20.35
2022-08-26T13:24:39.703Z,19.92
2022-08-26T13:27:10.340Z,19.25
2022-08-26T13:29:37.489Z,18.61
2022-08-26T13:32:07.022Z,19.27
2022-08-26T13:34:36.468Z,19.62
2022-08-26T13:37:03.632Z,18.22
2022-08-26T13:39:30.700Z,18.84
2022-08-26T13:41:58.284Z,19.24
2022-08-26T13:44:25.458Z,19.28
2022-08-26T13:46:52.611Z,18.33
2022-08-26T13:49:19.742Z,18.80
2022-08-26T13:51:46.791Z,18.69
2022-08-26T13:54:14.104Z,19.36
2022-08-26T13:56:41.170Z,19.69
2022-08-26T13:59:08.237Z,20.33
2022-08-26T14:01:36.137Z,19.90
2022-08-26T14:04:03.819Z,18.94
2022-08-26T14:06:31.181Z,18.63
2022-08-26T14:08:58.739Z,18.18
2022-08-26T14:11:27.006Z,19.08
2022-08-26T14:13:54.032Z,18.40
2022-08-26T14:16:33.511Z,19.01
2022-08-26T14:19:02.207Z,18.13
2022-08-26T14:21:36.840Z,18.11
2022-08-26T14:24:06.312Z,17.65
2022-08-26T14:26:33.549Z,18.29
2022-08-26T14:29:03.822Z,18.45
2022-08-26T14:31:33.095Z,18.36
2022-08-26T14:34:09.884Z,18.26
2022-08-26T14:36:38.151Z,18.07
2022-08-26T14:39:10.661Z,18.47
2022-08-26T14:41:56.797Z,18.40
2022-08-26T14:44:32.891Z,18.22
2022-08-26T14:47:04.181Z,17.51
2022-08-26T14:49:31.810Z,18.14
2022-08-26T14:51:59.370Z,19.05
2022-08-26T14:54:26.620Z,19.09
2022-08-26T14:56:58.622Z,19.26
2022-08-26T14:59:39.476Z,19.28
2022-08-26T15:02:10.629Z,19.47
2022-08-26T15:04:41.515Z,18.71
2022-08-26T15:07:09.418Z,18.41
2022-08-26T15:09:42.500Z,18.91
2022-08-26T15:12:09.618Z,18.12
2022-08-26T15:14:36.679Z,18.58
2022-08-26T15:17:04.720Z,19.38
2022-08-26T15:19:31.768Z,19.95
2022-08-26T15:21:58.975Z,19.46
2022-08-26T15:24:29.047Z,20.43
2022-08-26T15:26:56.513Z,19.12
2022-08-26T15:29:24.158Z,20.06
2022-08-26T15:31:51.513Z,20.09
2022-08-26T15:34:22.288Z,20.54
2022-08-26T15:36:49.336Z,19.74
2022-08-26T15:39:17.611Z,20.21
2022-08-26T15:41:45.447Z,20.13
2022-08-26T15:44:14.398Z,19.43
2022-08-26T15:46:42.687Z,18.86
2022-08-26T15:49:12.867Z,19.45
2022-08-26T15:51:47.053Z,19.12
2022-08-26T15:54:16.742Z,18.95
2022-08-26T15:56:45.528Z,19.12
2022-08-26T15:59:15.451Z,20.84
2022-08-26T16:01:43.710Z,20.53
2022-08-26T16:04:11.543Z,20.18
2022-08-26T16:06:43.570Z,20.49
2022-08-26T16:09:11.146Z,21.24
2022-08-26T16:11:38.415Z,20.51
2022-08-26T16:14:06.319Z,19.93
2022-08-26T16:16:33.773Z,21.16
2022-08-26T16:19:05.559Z,20.93
2022-08-26T16:21:34.613Z,20.56
2022-08-26T16:24:01.780Z,20.79
2022-08-26T16:26:33.191Z,21.16
2022-08-26T16:29:08.897Z,20.96
2022-08-26T16:31:38.382Z,20.29
2022-08-26T16:34:07.818Z,21.55
2022-08-26T16:36:37.289Z,21.26
2022-08-26T16:39:07.328Z,20.96
2022-08-26T16:41:35.356Z,20.99
2022-08-26T16:44:03.666Z,21.20
2022-08-26T16:46:31.109Z,21.00
2022-08-26T16:48:59.483Z,21.46
2022-08-26T16:51:28.273Z,22.10
2022-08-26T16:53:57.535Z,21.79
2022-08-26T16:56:33.653Z,22.90
2022-08-26T16:59:07.486Z,22.36
2022-08-26T17:01:34.935Z,22.63
2022-08-26T17:04:02.206Z,22.78
2022-08-26T17:06:30.025Z,22.12
2022-08-26T17:08:57.078Z,22.46
2022-08-26T17:11:24.275Z,22.01
2022-08-26T17:13:51.389Z,22.23
2022-08-26T17:16:18.757Z,21.79
2022-08-26T17:18:47.786Z,22.06
2022-08-26T17:21:14.968Z,22.57
2022-08-26T17:23:43.687Z,22.22
2022-08-26T17:26:12.348Z,22.92
2022-08-26T17:28:40.445Z,22.67
2022-08-26T17:31:10.629Z,22.71
2022-08-26T17:33:39.373Z,23.11
2022-08-26T17:36:08.551Z,23.28
2022-08-26T17:38:37.695Z,23.54
2022-08-26T17:41:09.578Z,23.72
2022-08-26T17:43:38.434Z,23.25
2022-08-26T17:46:10.070Z,23.82
2022-08-26T17:48:38.728Z,24.02
2022-08-26T17:51:15.437Z,23.87
2022-08-26T17:53:43.297Z,24.66
2022-08-26T17:56:14.256Z,24.76
2022-08-26T17:58:51.133Z,24.92
2022-08-26T18:01:26.117Z,25.47
2022-08-26T18:04:00.120Z,25.49
2022-08-26T18:06:30.740Z,25.48
2022-08-26T18:08:59.473Z,25.79
2022-08-26T18:11:27.385Z,25.74
2022-08-26T18:13:54.370Z,25.79
2022-08-26T18:16:21.799Z,26.24
2022-08-26T18:18:53.404Z,25.87
2022-08-26T18:21:23.656Z,25.91
2022-08-26T18:23:51.964Z,25.72
2022-08-26T18:26:28.010Z,26.24
2022-08-26T18:28:55.501Z,26.96
2022-08-26T18:31:22.805Z,26.80
2022-08-26T18:33:50.178Z,27.50
2022-08-26T18:36:27.336Z,27.89
2022-08-26T18:38:55.536Z,28.49
2022-08-26T18:41:28.971Z,28.54
2022-08-26T18:43:56.591Z,28.81
2022-08-26T18:46:26.727Z,29.32
2022-08-26T18:48:55.680Z,29.34
2022-08-26T18:51:30.814Z,29.86
2022-08-26T18:53:59.774Z,30.45
2022-08-26T18:56:27.718Z,31.35
2022-08-26T18:58:54.689Z,31.37
2022-08-26T19:01:26.665Z,32.28
2022-08-26T19:03:59.449Z,31.68
2022-08-26T19:06:29.561Z,31.47
2022-08-26T19:08:58.014Z,32.13
2022-08-26T19:11:32.557Z,32.32
2022-08-26T19:14:09.162Z,33.02
2022-08-26T19:16:37.438Z,32.34
2022-08-26T19:19:05.544Z,32.58
2022-08-26T19:21:36.105Z,32.98
2022-08-26T19:24:09.316Z,32.63
2022-08-26T19:26:38.980Z,32.87
2022-08-26T19:29:06.693Z,31.92
2022-08-26T19:31:33.978Z,32.47
2022-08-26T19:34:01.264Z,33.36
2022-08-26T19:36:33.383Z,32.86
2022-08-26T19:39:05.027Z,33.52
2022-08-26T19:41:38.152Z,32.43
2022-08-26T19:44:33.771Z,33.89
2022-08-26T19:47:01.636Z,33.69
2022-08-26T19:49:28.962Z,33.29
2022-08-26T19:51:56.844Z,33.62
2022-08-26T19:54:24.639Z,34.41
2022-08-26T19:56:52.105Z,34.01
2022-08-26T19:59:19.344Z,34.02
2022-08-26T20:01:47.047Z,33.71
2022-08-26T20:04:20.233Z,34.54
2022-08-26T20:06:47.492Z,34.25
2022-08-26T20:09:19.432Z,35.76
2022-08-26T20:11:46.619Z,35.50
2022-08-26T20:14:14.082Z,35.64
2022-08-26T20:16:41.341Z,35.18
2022-08-26T20:19:27.468Z,35.84
2022-08-26T20:21:54.730Z,36.97
2022-08-26T20:24:22.108Z,36.01
2022-08-26T20:26:49.900Z,35.69
2022-08-26T20:29:18.774Z,36.52
2022-08-26T20:31:48.025Z,37.01
2022-08-26T20:34:18.679Z,37.19
2022-08-26T20:36:48.181Z,36.93
2022-08-26T20:39:18.342Z,36.66
2022-08-26T20:41:45.596Z,36.85
2022-08-26T20:44:14.042Z,37.81
2022-08-26T20:46:41.931Z,37.88
2022-08-26T20:49:09.617Z,37.73
2022-08-26T20:51:37.861Z,37.53
2022-08-26T20:54:07.526Z,37.62
2022-08-26T20:56:35.502Z,37.34
2022-08-26T20:59:02.998Z,37.99
2022-08-26T21:01:41.977Z,38.27
2022-08-26T21:04:29.443Z,38.60
2022-08-26T21:06:56.894Z,39.02
2022-08-26T21:09:25.775Z,38.90
2022-08-26T21:11:54.989Z,38.18
2022-08-26T21:14:25.962Z,39.15
2022-08-26T21:16:53.973Z,39.19
2022-08-26T21:19:21.329Z,39.01
2022-08-26T21:21:50.273Z,38.71
2022-08-26T21:24:18.350Z,38.96
2022-08-26T21:26:46.421Z,39.25
2022-08-26T21:29:13.876Z,38.63
2022-08-26T21:31:46.177Z,38.96
2022-08-26T21:34:19.243Z,39.59
2022-08-26T21:36:47.873Z,39.60
2022-08-26T21:39:16.404Z,40.34
2022-08-26T21:41:44.755Z,39.67
2022-08-26T21:44:14.487Z,39.93
2022-08-26T21:46:43.581Z,39.70
2022-08-26T21:49:13.917Z,40.07
2022-08-26T21:51:45.832Z,40.06
2022-08-26T21:54:13.022Z,40.86
2022-08-26T21:56:46.461Z,40.56
2022-08-26T21:59:24.382Z,42.09
2022-08-26T22:01:52.519Z,40.95
2022-08-26T22:04:21.060Z,42.24
2022-08-26T22:06:51.969Z,41.17
2022-08-26T22:09:23.529Z,42.06
2022-08-26T22:12:00.627Z,42.00
2022-08-26T22:14:30.905Z,41.53
2022-08-26T22:17:00.072Z,41.90
2022-08-26T22:19:27.395Z,42.13
2022-08-26T22:21:55.868Z,41.51
2022-08-26T22:26:59.369Z,41.67
2022-08-26T22:29:29.289Z,42.17
2022-08-26T22:31:57.323Z,41.63
2022-08-26T22:34:24.582Z,41.32
2022-08-26T22:36:51.983Z,41.60
2022-08-26T22:39:23.645Z,42.07
2022-08-26T22:41:52.266Z,42.54
2022-08-26T22:44:22.189Z,42.43
2022-08-26T22:46:53.091Z,42.05
2022-08-26T22:49:21.228Z,42.88
2022-08-26T22:51:48.999Z,42.26
2022-08-26T22:54:17.243Z,41.99
2022-08-26T22:56:45.628Z,41.79
2022-08-26T22:59:13.491Z,42.31
2022-08-26T23:01:43.103Z,43.31
2022-08-26T23:04:11.849Z,43.27
2022-08-26T23:06:41.655Z,43.06
2022-08-26T23:09:09.858Z,43.17
2022-08-26T23:11:39.863Z,42.40
2022-08-26T23:14:10.392Z,43.24
2022-08-26T23:16:43.894Z,44.00
2022-08-26T23:19:16.739Z,44.28
2022-08-26T23:21:44.570Z,43.37
2022-08-26T23:24:12.366Z,43.34
2022-08-26T23:26:41.519Z,44.00
2022-08-26T23:29:12.397Z,44.04
2022-08-26T23:31:50.636Z,43.41
2022-08-26T23:34:36.764Z,43.37
2022-08-26T23:37:06.233Z,43.43
2022-08-26T23:39:36.188Z,43.68
2022-08-26T23:42:04.306Z,43.65
2022-08-26T23:44:31.561Z,44.09
2022-08-26T23:46:59.863Z,44.32
2022-08-26T23:49:27.790Z,43.95
2022-08-26T23:52:13.654Z,44.14
2022-08-26T23:54:41.562Z,44.06
2022-08-26T23:57:09.904Z,43.89
2022-08-26T23:59:38.819Z,44.19
